Time;durP1;ratioP1;P1;durP2;ratioP2;P2;SDS_P1;SDS_P2;PMS_P1;PMS_P2;Temp;Humidity;BMP_temperature;BMP_pressure;BME280_temperature;BME280_humidity;BME280_pressure;Samples;Min_cycle;Max_cycle;Signal;HPM_P1;HPM_P2
2022/03/23 00:00:07;;;;;;;30.02;16.63;;;;;;;5.49;45.07;102172.06;4952316;28;20040;-87
2022/03/23 00:02:37;;;;;;;28.77;16.70;;;;;;;5.49;45.63;102166.81;4952919;29;20098;-87
2022/03/23 00:05:03;;;;;;;32.80;16.77;;;;;;;5.48;45.57;102164.25;4953310;29;20036;-89
2022/03/23 00:07:28;;;;;;;27.92;16.00;;;;;;;5.49;45.67;102164.19;4951477;29;20058;-85
2022/03/23 00:09:54;;;;;;;32.55;16.58;;;;;;;5.58;45.09;102160.16;4953575;29;20031;-88
2022/03/23 00:12:20;;;;;;;29.92;16.27;;;;;;;5.72;44.71;102163.69;4953362;29;20074;-88
2022/03/23 00:14:45;;;;;;;24.98;15.55;;;;;;;5.84;44.96;102164.72;4952075;29;20051;-88
2022/03/23 00:17:11;;;;;;;30.25;15.90;;;;;;;5.88;44.90;102157.53;4950942;29;20039;-86
2022/03/23 00:19:37;;;;;;;30.38;15.52;;;;;;;5.59;45.63;102156.59;4954848;28;20023;-88
2022/03/23 00:22:06;;;;;;;29.05;15.05;;;;;;;5.70;44.93;102154.19;4952638;29;20044;-88
2022/03/23 00:24:32;;;;;;;28.23;15.38;;;;;;;5.64;45.79;102160.63;4953691;29;20115;-86
2022/03/23 00:26:58;;;;;;;26.45;14.40;;;;;;;5.50;45.88;102165.84;4953356;29;20083;-87
2022/03/23 00:29:23;;;;;;;23.67;14.48;;;;;;;5.72;45.10;102158.41;4951494;29;20044;-87
2022/03/23 00:31:49;;;;;;;25.50;15.00;;;;;;;5.88;45.10;102165.41;4951751;29;20043;-89
2022/03/23 00:34:15;;;;;;;28.08;14.95;;;;;;;6.03;44.33;102162.69;4953756;29;20096;-86
2022/03/23 00:36:40;;;;;;;28.75;15.80;;;;;;;6.25;43.85;102167.53;4935940;29;20082;-88
2022/03/23 00:39:06;;;;;;;27.35;14.95;;;;;;;6.27;43.57;102164.78;4953994;28;20484;-86
2022/03/23 00:41:32;;;;;;;23.83;13.88;;;;;;;6.30;43.85;102160.16;4954090;29;20010;-87
2022/03/23 00:43:59;;;;;;;28.48;16.00;;;;;;;6.35;44.01;102167.78;4952378;29;20040;-86
2022/03/23 00:46:24;;;;;;;25.70;14.93;;;;;;;6.06;44.17;102156.44;4953655;29;20058;-88
2022/03/23 00:48:50;;;;;;;22.88;13.80;;;;;;;6.10;44.00;102157.91;4953288;29;20039;-88
2022/03/23 00:51:17;;;;;;;26.65;15.27;;;;;;;6.13;43.80;102148.03;4952593;29;20054;-88
2022/03/23 00:53:44;;;;;;;27.48;14.50;;;;;;;6.22;44.05;102158.03;4953191;29;20555;-89
2022/03/23 00:56:11;;;;;;;26.75;14.55;;;;;;;6.17;44.18;102153.97;4951848;29;20394;-86
2022/03/23 00:58:36;;;;;;;25.08;14.38;;;;;;;6.38;43.62;102163.19;4956247;29;20031;-87
2022/03/23 01:01:02;;;;;;;24.55;13.88;;;;;;;6.30;43.12;102154.91;4955589;29;20502;-89
2022/03/23 01:03:28;;;;;;;21.67;13.60;;;;;;;6.38;43.06;102160.56;4950752;29;20035;-89
2022/03/23 01:05:54;;;;;;;27.48;15.10;;;;;;;6.18;42.97;102148.63;4942088;29;20123;-87
2022/03/23 01:08:19;;;;;;;23.52;14.18;;;;;;;5.78;44.23;102143.19;4941629;29;20060;-90
2022/03/23 01:10:45;;;;;;;25.42;14.32;;;;;;;5.46;44.90;102148.59;4941117;29;20462;-89
2022/03/23 01:13:10;;;;;;;26.90;14.30;;;;;;;5.43;45.42;102147.91;4939157;29;20039;-89
2022/03/23 01:15:36;;;;;;;25.15;14.38;;;;;;;5.37;45.81;102138.59;4939322;29;20404;-87
2022/03/23 01:18:04;;;;;;;25.73;14.95;;;;;;;5.31;45.96;102135.47;4923303;29;20024;-89
2022/03/23 01:20:34;;;;;;;23.52;14.15;;;;;;;5.34;45.87;102136.13;4939538;29;20044;-88
2022/03/23 01:22:59;;;;;;;25.50;14.00;;;;;;;5.48;45.61;102140.59;4943169;29;20027;-91
2022/03/23 01:25:25;;;;;;;26.45;14.35;;;;;;;5.52;45.58;102135.06;4941931;29;20067;-88
2022/03/23 01:27:57;;;;;;;22.48;13.45;;;;;;;5.49;45.49;102135.25;4935045;29;20067;-89
2022/03/23 01:30:23;;;;;;;25.95;14.57;;;;;;;5.42;46.16;102123.41;4963995;29;20043;-86
2022/03/23 01:32:49;;;;;;;26.10;14.23;;;;;;;5.18;46.57;102130.94;4958716;29;20919;-86
2022/03/23 01:35:14;;;;;;;29.73;14.27;;;;;;;4.91;47.41;102136.91;4960728;29;20143;-87
2022/03/23 01:37:40;;;;;;;28.80;14.85;;;;;;;4.96;47.63;102130.47;4958752;29;20038;-89
2022/03/23 01:40:09;;;;;;;30.05;14.95;;;;;;;4.95;47.05;102127.91;4947132;29;20035;-88
2022/03/23 01:42:36;;;;;;;26.60;13.65;;;;;;;4.83;47.66;102124.22;4942031;29;20509;-86
2022/03/23 01:45:03;;;;;;;28.45;13.38;;;;;;;5.02;47.55;102119.59;4945814;29;20502;-85
2022/03/23 01:47:29;;;;;;;23.33;13.90;;;;;;;5.34;46.15;102125.63;4947279;29;20066;-85
2022/03/23 01:49:56;;;;;;;25.60;13.35;;;;;;;5.51;45.34;102122.84;4945104;29;20086;-86
2022/03/23 01:52:28;;;;;;;36.67;14.23;;;;;;;5.43;45.33;102130.38;4940542;29;20059;-85
2022/03/23 01:54:54;;;;;;;24.33;14.02;;;;;;;5.17;46.27;102123.97;4937184;29;20036;-85
2022/03/23 01:57:22;;;;;;;31.95;13.75;;;;;;;4.99;47.07;102122.41;4938372;29;20079;-84
2022/03/23 01:59:48;;;;;;;26.95;14.85;;;;;;;5.02;46.86;102118.75;4937139;29;20070;-86
2022/03/23 02:02:14;;;;;;;25.88;13.88;;;;;;;4.94;46.41;102118.34;4938312;29;20074;-86
2022/03/23 02:04:50;;;;;;;24.05;14.23;;;;;;;4.66;47.11;102117.28;4937193;29;20039;-85
2022/03/23 02:07:18;;;;;;;24.65;13.82;;;;;;;4.66;47.63;102114.66;4936804;29;20035;-85
2022/03/23 02:09:46;;;;;;;32.75;13.77;;;;;;;4.67;47.68;102112.88;4938179;29;20118;-86
2022/03/23 02:12:15;;;;;;;23.95;14.45;;;;;;;4.79;48.14;102111.31;4945164;29;20047;-87
2022/03/23 02:14:41;;;;;;;26.65;14.68;;;;;;;4.91;47.64;102114.09;4945817;28;20035;-84
2022/03/23 02:17:06;;;;;;;27.27;14.10;;;;;;;5.21;46.84;102120.22;4954188;29;20118;-85
2022/03/23 02:19:33;;;;;;;22.90;13.70;;;;;;;5.26;47.01;102117.34;4947744;29;20099;-84
2022/03/23 02:21:59;;;;;;;22.58;13.90;;;;;;;5.20;46.84;102115.09;4942761;29;20032;-87
2022/03/23 02:24:27;;;;;;;24.50;14.32;;;;;;;5.09;47.33;102117.47;4920804;29;20042;-86
2022/03/23 02:26:54;;;;;;;30.55;14.88;;;;;;;5.02;47.81;102124.00;4952428;29;20102;-85
2022/03/23 02:29:24;;;;;;;28.65;13.93;;;;;;;5.06;47.38;102115.88;4937881;29;20035;-86
2022/03/23 02:31:49;;;;;;;25.55;14.05;;;;;;;5.17;48.01;102117.91;4956882;28;20050;-87
2022/03/23 02:34:15;;;;;;;24.70;13.77;;;;;;;5.14;47.22;102112.78;4957192;29;20391;-86
2022/03/23 02:36:41;;;;;;;24.02;13.98;;;;;;;5.02;47.41;102121.38;4980923;28;20023;-87
2022/03/23 02:39:06;;;;;;;25.95;13.57;;;;;;;5.14;47.89;102112.78;4965356;28;20085;-86
2022/03/23 02:41:32;;;;;;;26.23;13.32;;;;;;;5.24;47.16;102119.19;4956834;28;20035;-87
2022/03/23 02:43:59;;;;;;;26.10;13.63;;;;;;;5.41;47.17;102116.44;4956555;28;20039;-87
2022/03/23 02:46:25;;;;;;;27.92;13.38;;;;;;;5.43;47.05;102119.84;4956570;28;20410;-84
2022/03/23 02:48:54;;;;;;;27.55;13.73;;;;;;;5.42;46.92;102107.63;4956595;28;20167;-86
2022/03/23 02:51:19;;;;;;;25.13;13.20;;;;;;;5.43;46.82;102109.34;4956823;28;20071;-86
2022/03/23 03:02:30;;;;;;;28.98;15.63;;;;;;;5.31;47.33;102111.81;4937078;29;20043;-86
2022/03/23 03:04:56;;;;;;;24.05;13.85;;;;;;;5.34;46.74;102099.34;4937029;29;20055;-86
2022/03/23 03:07:22;;;;;;;23.60;13.40;;;;;;;4.90;47.39;102108.94;4937210;29;20035;-84
2022/03/23 03:09:47;;;;;;;31.05;15.00;;;;;;;4.72;47.98;102115.22;4935803;29;20423;-87
2022/03/23 03:12:13;;;;;;;24.40;13.65;;;;;;;4.61;49.13;102100.06;4936626;29;20043;-86
2022/03/23 03:14:39;;;;;;;30.13;14.52;;;;;;;4.67;49.17;102100.56;4936829;29;20083;-85
2022/03/23 03:17:05;;;;;;;30.23;13.75;;;;;;;4.81;48.71;102104.19;4935543;29;20036;-86
2022/03/23 03:19:32;;;;;;;24.63;13.27;;;;;;;4.71;48.61;102103.06;4936491;29;20167;-86
2022/03/23 03:21:58;;;;;;;25.08;14.50;;;;;;;4.86;48.32;102103.03;4936656;29;20047;-85
2022/03/23 03:24:23;;;;;;;25.50;14.68;;;;;;;4.67;48.30;102097.94;4935431;29;20031;-88
2022/03/23 03:26:50;;;;;;;23.42;13.27;;;;;;;4.74;48.55;102098.44;4936775;29;20035;-86
2022/03/23 03:29:17;;;;;;;24.30;13.65;;;;;;;4.71;49.03;102098.63;4936353;29;20036;-86
2022/03/23 03:31:43;;;;;;;24.95;13.95;;;;;;;4.92;48.36;102096.56;4936474;29;20083;-86
2022/03/23 03:34:09;;;;;;;29.90;14.30;;;;;;;4.85;48.39;102101.31;4936656;29;20043;-86
2022/03/23 03:36:36;;;;;;;25.70;14.38;;;;;;;5.00;47.96;102097.84;4935211;29;20552;-85
2022/03/23 03:39:05;;;;;;;26.77;13.38;;;;;;;4.79;48.65;102100.81;4936616;29;20075;-86
2022/03/23 03:41:31;;;;;;;33.20;14.48;;;;;;;4.77;49.08;102107.94;4934991;29;20375;-86
2022/03/23 03:43:57;;;;;;;24.50;13.98;;;;;;;4.56;49.14;102105.59;4936503;29;20518;-85
2022/03/23 03:46:24;;;;;;;29.55;14.32;;;;;;;4.72;48.86;102099.47;4936238;29;20057;-85
2022/03/23 03:48:50;;;;;;;29.67;15.30;;;;;;;4.79;48.98;102103.44;4935860;29;20036;-86
2022/03/23 03:51:15;;;;;;;23.35;12.88;;;;;;;4.86;48.37;102103.03;4936720;29;20046;-84
2022/03/23 03:53:42;;;;;;;27.02;14.60;;;;;;;4.80;48.80;102107.78;4943501;29;20069;-86
2022/03/23 03:56:09;;;;;;;27.05;14.50;;;;;;;4.54;49.74;102102.19;4939450;28;20028;-86
2022/03/23 03:58:35;;;;;;;28.70;14.43;;;;;;;4.46;49.93;102104.41;4940527;29;20518;-87
2022/03/23 04:01:00;;;;;;;27.48;14.52;;;;;;;4.72;48.95;102110.81;4942017;28;20032;-85
2022/03/23 04:03:26;;;;;;;25.60;14.40;;;;;;;4.75;49.52;102104.53;4936259;29;20036;-86
2022/03/23 04:05:52;;;;;;;26.08;14.07;;;;;;;4.64;48.84;102103.38;4945413;29;20031;-84
2022/03/23 04:08:17;;;;;;;25.45;14.07;;;;;;;4.61;48.81;102103.53;4936876;28;20035;-85
2022/03/23 04:10:43;;;;;;;22.48;14.10;;;;;;;4.87;48.56;102109.13;4936187;29;20036;-88
2022/03/23 04:13:09;;;;;;;27.25;14.70;;;;;;;4.78;48.96;102104.38;4935300;29;20110;-86
2022/03/23 04:15:35;;;;;;;23.58;14.63;;;;;;;4.54;49.81;102104.81;4935084;29;20034;-85
2022/03/23 04:18:01;;;;;;;29.98;15.18;;;;;;;4.39;50.06;102107.44;4934909;29;20036;-84
2022/03/23 04:20:28;;;;;;;28.70;14.93;;;;;;;4.43;50.13;102109.81;4936296;29;20043;-86
2022/03/23 04:22:54;;;;;;;24.48;14.95;;;;;;;4.31;50.73;102105.22;4945536;29;20024;-86
2022/03/23 04:25:19;;;;;;;26.73;14.95;;;;;;;4.00;51.94;102097.31;4946142;29;20040;-86
2022/03/23 04:27:51;;;;;;;24.90;14.13;;;;;;;3.93;51.82;102098.56;4935683;29;20526;-84
2022/03/23 04:30:19;;;;;;;33.73;15.23;;;;;;;3.91;52.62;102103.06;4945187;29;20055;-84
2022/03/23 04:32:49;;;;;;;31.13;14.85;;;;;;;4.05;52.09;102100.53;4958406;28;20051;-84
2022/03/23 04:35:16;;;;;;;25.48;15.15;;;;;;;4.16;51.57;102096.41;4959215;28;20035;-86
2022/03/23 04:37:43;;;;;;;32.42;15.75;;;;;;;4.15;51.39;102096.50;4945352;28;20039;-85
2022/03/23 04:40:10;;;;;;;28.10;15.35;;;;;;;4.02;51.94;102098.06;4940375;29;20476;-86
2022/03/23 04:42:37;;;;;;;27.17;15.30;;;;;;;4.03;51.89;102095.38;4939737;29;20039;-86
2022/03/23 04:45:04;;;;;;;28.10;16.13;;;;;;;3.92;52.09;102102.09;4948284;29;20093;-86
2022/03/23 04:47:30;;;;;;;29.00;15.13;;;;;;;4.11;51.16;102097.56;4958044;29;20062;-84
2022/03/23 04:49:55;;;;;;;33.30;15.80;;;;;;;4.11;51.52;102098.44;4961653;28;20047;-84
2022/03/23 04:52:21;;;;;;;32.90;15.90;;;;;;;4.22;51.67;102099.63;4958681;29;20043;-87
2022/03/23 04:54:47;;;;;;;31.05;15.93;;;;;;;4.31;51.02;102097.34;4952367;28;20039;-88
2022/03/23 04:57:13;;;;;;;31.42;15.80;;;;;;;4.27;51.13;102106.34;4958633;29;20438;-87
2022/03/23 04:59:41;;;;;;;32.60;15.15;;;;;;;4.10;51.07;102098.53;4961434;28;20031;-89
2022/03/23 05:02:08;;;;;;;25.33;14.27;;;;;;;4.20;51.06;102107.59;4961742;28;20054;-90
2022/03/23 05:04:33;;;;;;;31.15;14.25;;;;;;;4.13;51.13;102100.97;4960591;29;20494;-86
2022/03/23 05:06:59;;;;;;;26.35;15.40;;;;;;;4.10;51.51;102111.63;4953436;28;20039;-89
2022/03/23 05:09:27;;;;;;;28.92;15.35;;;;;;;4.06;51.22;102102.22;4958490;29;20035;-89
2022/03/23 05:11:56;;;;;;;33.45;15.55;;;;;;;3.96;52.46;102098.41;4955055;29;20039;-89
2022/03/23 05:14:46;;;;;;;27.10;14.65;;;;;;;4.10;51.63;102107.25;4976672;29;20047;-90
2022/03/23 05:17:37;;;;;;;25.17;14.18;;;;;;;4.19;51.45;102100.66;4978123;29;20043;-89
2022/03/23 05:20:14;;;;;;;28.48;14.70;;;;;;;4.50;49.51;102103.31;5189113;23;20055;-92
2022/03/23 05:22:44;;;;;;;31.75;15.85;;;;;;;4.60;49.93;102101.88;4979326;23;20066;-90
2022/03/23 05:25:21;;;;;;;26.27;14.25;;;;;;;4.78;49.72;102109.63;4964089;29;20043;-89
2022/03/23 05:30:32;;;;;;;30.98;16.02;;;;;;;5.12;48.25;102105.00;5003944;23;20067;-90
2022/03/23 05:33:09;;;;;;;40.35;16.98;;;;;;;5.12;48.26;102098.91;4951109;29;20035;-93
2022/03/23 05:35:38;;;;;;;25.83;15.27;;;;;;;4.93;49.31;102101.75;4941408;29;20058;-90
2022/03/23 05:38:06;;;;;;;28.85;16.15;;;;;;;5.14;48.71;102102.28;4934343;29;20440;-90
2022/03/23 05:40:32;;;;;;;30.15;15.85;;;;;;;5.36;47.94;102102.75;4947019;29;20039;-92
2022/03/23 05:43:11;;;;;;;29.98;15.93;;;;;;;5.06;48.80;102104.50;4966165;28;20038;-87
2022/03/23 05:45:36;;;;;;;34.28;16.45;;;;;;;5.35;48.88;102101.03;4960261;29;20019;-85
2022/03/23 05:48:06;;;;;;;32.72;15.45;;;;;;;5.38;48.77;102100.84;4963554;29;20042;-88
2022/03/23 05:50:33;;;;;;;31.20;16.80;;;;;;;5.55;47.94;102108.59;4971050;29;20042;-89
2022/03/23 05:53:01;;;;;;;45.45;16.13;;;;;;;5.91;46.91;102112.59;4952472;29;20061;-88
2022/03/23 05:55:27;;;;;;;38.95;16.50;;;;;;;6.37;46.32;102119.34;4969276;29;20039;-86
2022/03/23 05:57:55;;;;;;;42.70;16.65;;;;;;;6.94;44.67;102124.50;4942976;29;20035;-84
2022/03/23 06:00:21;;;;;;;34.08;16.25;;;;;;;6.95;44.51;102131.47;4962367;29;20122;-88
2022/03/23 06:02:47;;;;;;;38.25;15.77;;;;;;;6.66;44.75;102131.53;4959478;29;20122;-90
2022/03/23 06:05:12;;;;;;;36.45;14.77;;;;;;;6.62;45.36;102147.66;4942177;29;20047;-89
2022/03/23 06:07:39;;;;;;;38.65;15.77;;;;;;;6.49;45.18;102128.28;4963286;29;20039;-89
2022/03/23 06:10:07;;;;;;;32.15;16.60;;;;;;;6.78;45.13;102129.06;4959445;29;20031;-89
2022/03/23 06:12:32;;;;;;;40.60;17.67;;;;;;;6.80;45.30;102132.44;4959150;29;20515;-87
2022/03/23 06:14:58;;;;;;;38.35;16.20;;;;;;;6.86;44.75;102143.44;4957462;29;20092;-86
2022/03/23 06:17:23;;;;;;;30.33;15.00;;;;;;;7.11;44.43;102140.06;4961108;29;20043;-86
2022/03/23 06:19:52;;;;;;;37.85;16.23;;;;;;;7.89;42.51;102136.50;4959458;29;20422;-90
2022/03/23 06:22:18;;;;;;;39.95;15.68;;;;;;;8.75;41.17;102148.88;4965772;29;20122;-88
2022/03/23 06:24:44;;;;;;;32.78;15.02;;;;;;;8.65;40.62;102142.56;4961962;29;20035;-90
2022/03/23 06:27:10;;;;;;;27.13;15.25;;;;;;;8.43;41.32;102142.41;4928831;29;20130;-89
2022/03/23 06:29:35;;;;;;;30.40;16.05;;;;;;;8.81;40.39;102137.88;4964710;29;20047;-90
2022/03/23 06:32:01;;;;;;;34.55;15.52;;;;;;;9.82;39.01;102142.59;4962122;29;20554;-89
2022/03/23 06:34:26;;;;;;;29.25;15.10;;;;;;;10.22;38.23;102139.53;4961390;29;20055;-89
2022/03/23 06:36:52;;;;;;;45.17;16.83;;;;;;;9.31;39.60;102144.72;4943855;29;20035;-89
2022/03/23 06:39:18;;;;;;;49.70;16.75;;;;;;;10.06;39.44;102145.16;4961902;29;20041;-90
2022/03/23 06:41:44;;;;;;;37.08;16.20;;;;;;;10.02;38.50;102143.69;4944374;29;20090;-88
2022/03/23 06:44:11;;;;;;;30.02;16.20;;;;;;;10.84;37.63;102143.31;4943248;29;20027;-87
2022/03/23 06:46:37;;;;;;;34.75;15.93;;;;;;;10.84;36.52;102140.66;4944127;29;20071;-90
2022/03/23 06:49:03;;;;;;;33.63;16.30;;;;;;;10.53;37.70;102144.09;4960612;29;20031;-89
2022/03/23 06:51:29;;;;;;;41.72;16.15;;;;;;;10.01;38.93;102133.22;4961033;29;20043;-89
2022/03/23 06:53:54;;;;;;;38.25;17.05;;;;;;;9.86;40.35;102141.38;4930127;29;20038;-92
2022/03/23 06:56:22;;;;;;;52.95;17.70;;;;;;;9.57;40.99;102137.47;4938689;29;20038;-91
2022/03/23 06:58:49;;;;;;;43.05;18.88;;;;;;;9.94;41.02;102134.66;4957065;29;20054;-90
2022/03/23 07:01:18;;;;;;;36.78;17.58;;;;;;;10.48;39.72;102137.44;4941408;29;20483;-90
2022/03/23 07:03:54;;;;;;;35.58;18.42;;;;;;;11.30;38.33;102145.69;4955668;29;20035;-91
2022/03/23 07:06:25;;;;;;;44.60;19.42;;;;;;;10.90;39.63;102140.16;4954951;29;20042;-90
2022/03/23 07:11:36;;;;;;;44.53;18.02;;;;;;;11.57;38.42;102139.88;4958204;29;20047;-90
2022/03/23 07:14:02;;;;;;;41.83;17.30;;;;;;;11.06;38.83;102144.22;4941402;29;20116;-91
2022/03/23 07:16:28;;;;;;;40.67;17.90;;;;;;;10.74;39.89;102152.97;4974516;29;20045;-89
2022/03/23 07:18:54;;;;;;;42.92;17.17;;;;;;;11.56;38.60;102156.81;4949372;29;20095;-89
2022/03/23 07:21:19;;;;;;;50.35;18.42;;;;;;;11.83;37.95;102156.31;4949145;29;20057;-88
2022/03/23 07:23:57;;;;;;;34.85;17.88;;;;;;;12.63;36.31;102159.91;4973306;29;20051;-90
2022/03/23 07:26:24;;;;;;;47.17;17.45;;;;;;;13.94;34.10;102157.59;4971522;29;20126;-89
2022/03/23 07:28:51;;;;;;;51.80;17.77;;;;;;;14.47;32.57;102160.53;4942734;29;20039;-89
2022/03/23 07:31:17;;;;;;;37.25;17.77;;;;;;;16.12;31.30;102153.75;4953869;29;20054;-88
2022/03/23 07:33:50;;;;;;;37.60;16.75;;;;;;;16.10;30.86;102165.59;4970292;29;20031;-87
2022/03/23 07:36:18;;;;;;;38.58;17.83;;;;;;;15.40;31.14;102167.38;5052121;23;20055;-90
2022/03/23 07:38:47;;;;;;;44.05;18.83;;;;;;;14.72;32.39;102156.31;4928273;29;20062;-90
2022/03/23 07:41:43;;;;;;;45.60;18.27;;;;;;;14.63;32.77;102162.56;4957456;29;20043;-89
2022/03/23 07:44:13;;;;;;;42.15;19.20;;;;;;;14.80;32.90;102163.59;4954425;29;20054;-89
2022/03/23 07:46:41;;;;;;;48.25;18.65;;;;;;;15.41;31.56;102169.06;4941237;29;20044;-90
2022/03/23 07:49:07;;;;;;;44.30;17.67;;;;;;;14.97;32.56;102165.47;4959446;29;20113;-90
2022/03/23 07:51:34;;;;;;;43.58;18.75;;;;;;;15.13;32.86;102172.78;4928529;29;20047;-90
2022/03/23 07:54:41;;;;;;;43.05;19.40;;;;;;;14.02;33.59;102166.72;4943676;29;20099;-89
2022/03/23 07:57:09;;;;;;;42.65;19.25;;;;;;;15.33;33.24;102168.97;4953505;29;20035;-85
2022/03/23 07:59:45;;;;;;;39.38;18.88;;;;;;;15.42;32.03;102176.91;4959305;29;20086;-88
2022/03/23 08:02:16;;;;;;;57.45;19.65;;;;;;;15.50;31.67;102178.88;4928539;29;20035;-86
2022/03/23 08:04:41;;;;;;;39.22;19.48;;;;;;;16.58;30.49;102179.25;4942352;29;20468;-86
2022/03/23 08:07:07;;;;;;;50.55;18.95;;;;;;;15.87;31.60;102176.00;4957181;29;20130;-87
2022/03/23 08:09:33;;;;;;;46.75;18.17;;;;;;;15.68;31.88;102179.66;4956184;29;20047;-88
2022/03/23 08:11:59;;;;;;;44.15;18.40;;;;;;;16.26;31.22;102176.41;4933118;29;20027;-87
2022/03/23 08:14:28;;;;;;;34.58;18.00;;;;;;;15.90;31.91;102173.00;4935918;29;20173;-87
2022/03/23 08:16:57;;;;;;;37.72;17.40;;;;;;;15.81;32.78;102169.41;4940590;29;20035;-87
2022/03/23 08:19:25;;;;;;;31.67;17.00;;;;;;;16.82;31.49;102174.00;4938140;29;20087;-86
2022/03/23 08:21:57;;;;;;;32.05;16.70;;;;;;;17.11;30.68;102188.81;4944054;29;20035;-85
2022/03/23 08:24:34;;;;;;;29.60;16.17;;;;;;;17.56;30.54;102175.84;4947677;29;20047;-87
2022/03/23 08:27:00;;;;;;;35.75;16.75;;;;;;;17.32;31.02;102182.00;4945073;29;20032;-87
2022/03/23 08:29:32;;;;;;;40.88;17.58;;;;;;;16.23;32.86;102185.59;4963613;23;20039;-87
2022/03/23 08:32:02;;;;;;;31.42;17.08;;;;;;;17.75;31.17;102180.03;4953104;23;20050;-88
2022/03/23 08:34:34;;;;;;;27.55;15.85;;;;;;;16.93;31.58;102186.25;4966110;29;20045;-89
2022/03/23 08:37:12;;;;;;;30.70;16.45;;;;;;;17.78;30.36;102182.34;4948112;29;20046;-87
2022/03/23 08:39:40;;;;;;;31.17;16.55;;;;;;;17.85;30.36;102189.56;4973501;23;20106;-89
2022/03/23 08:42:14;;;;;;;33.92;17.73;;;;;;;17.97;30.15;102188.22;4957468;29;20023;-90
2022/03/23 08:44:41;;;;;;;28.70;16.30;;;;;;;18.21;29.85;102189.19;4942287;23;20059;-87
2022/03/23 08:47:10;;;;;;;36.55;17.33;;;;;;;17.97;29.52;102193.56;4938121;29;20055;-89
2022/03/23 08:49:37;;;;;;;35.88;17.52;;;;;;;17.59;30.41;102193.44;4936246;29;20043;-88
2022/03/23 08:52:10;;;;;;;32.88;17.60;;;;;;;17.29;30.77;102184.16;4952553;29;20123;-91
2022/03/23 08:54:40;;;;;;;28.42;17.10;;;;;;;17.66;31.17;102189.09;4937296;29;20091;-89
2022/03/23 08:57:11;;;;;;;26.63;17.05;;;;;;;17.67;30.42;102185.38;4933886;29;20032;-89
2022/03/23 08:59:39;;;;;;;28.55;16.20;;;;;;;18.73;28.43;102187.69;4959483;23;20047;-88
2022/03/23 09:04:37;;;;;;;35.88;17.02;;;;;;;18.13;29.55;102186.53;4946720;29;20043;-87
2022/03/23 09:07:02;;;;;;;35.85;17.42;;;;;;;18.49;29.15;102177.84;4967005;29;20027;-90
2022/03/23 09:09:34;;;;;;;42.08;18.55;;;;;;;18.15;29.24;102174.59;4959279;23;20027;-89
2022/03/23 09:12:13;;;;;;;25.27;16.13;;;;;;;18.71;28.75;102181.66;4964731;29;20425;-88
2022/03/23 09:15:00;;;;;;;28.67;17.85;;;;;;;18.97;28.31;102181.34;4951689;29;20039;-89
2022/03/23 09:17:26;;;;;;;30.52;18.42;;;;;;;19.20;28.28;102182.22;4962939;28;20043;-91
2022/03/23 09:19:55;;;;;;;29.73;17.55;;;;;;;19.87;27.51;102169.78;4963586;29;20320;-90
2022/03/23 09:22:22;;;;;;;27.77;17.88;;;;;;;19.75;26.52;102168.56;4958567;29;20031;-88
2022/03/23 09:24:47;;;;;;;32.42;16.73;;;;;;;20.34;26.68;102166.78;4959066;29;20124;-89
2022/03/23 09:27:14;;;;;;;27.02;17.58;;;;;;;19.80;27.04;102168.81;4948275;29;20035;-86
2022/03/23 09:29:42;;;;;;;29.45;18.50;;;;;;;19.09;27.33;102167.31;4943489;29;20031;-88
2022/03/23 09:32:10;;;;;;;30.13;18.58;;;;;;;19.25;27.29;102168.25;4925488;29;20050;-90
2022/03/23 09:34:36;;;;;;;37.65;18.50;;;;;;;19.38;27.35;102172.03;4927133;29;20455;-88
2022/03/23 09:39:51;;;;;;;29.80;18.52;;;;;;;20.95;24.76;102165.47;4954334;29;20066;-87
2022/03/23 09:42:18;;;;;;;37.00;19.67;;;;;;;21.07;24.39;102160.44;4935286;29;20043;-91
2022/03/23 09:44:48;;;;;;;34.97;18.88;;;;;;;21.45;24.18;102161.03;4950788;29;20035;-89
2022/03/23 09:47:16;;;;;;;37.88;18.95;;;;;;;20.77;23.69;102156.97;4967922;29;20023;-87
2022/03/23 09:49:50;;;;;;;39.67;18.98;;;;;;;21.25;23.33;102171.63;4974017;29;20054;-90
2022/03/23 09:54:58;;;;;;;33.63;19.73;;;;;;;23.34;21.17;102165.00;4597242;26;20052;-88
2022/03/23 09:57:30;;;;;;;35.92;19.23;;;;;;;22.98;20.71;102158.09;4936622;29;20036;-89
2022/03/23 09:59:58;;;;;;;42.15;19.63;;;;;;;22.88;21.46;102164.91;4917985;29;20036;-88
2022/03/23 10:03:05;;;;;;;33.72;19.13;;;;;;;24.33;19.76;102161.25;4915821;29;20028;-89
2022/03/23 10:06:09;;;;;;;35.60;20.02;;;;;;;22.61;19.98;102151.25;4933470;29;20051;-88
2022/03/23 10:09:13;;;;;;;28.80;19.27;;;;;;;24.02;18.77;102152.97;4937059;29;20103;-93
2022/03/23 10:12:19;;;;;;;30.63;19.02;;;;;;;24.44;18.99;102152.47;4926774;29;20039;-91
2022/03/23 10:18:57;;;;;;;37.40;20.25;;;;;;;22.63;19.76;102141.09;4961155;28;20058;-90
2022/03/23 10:21:26;;;;;;;33.25;19.92;;;;;;;22.88;19.46;102133.31;4952340;29;20046;-89
2022/03/23 10:24:00;;;;;;;;;;;;;;;22.50;19.90;102134.81;4936994;29;20043;-91
2022/03/23 10:26:31;;;;;;;32.63;19.77;;;;;;;23.35;18.49;102135.06;4936988;29;19919;-91
2022/03/23 10:28:58;;;;;;;32.83;20.13;;;;;;;22.79;18.04;102139.09;4924677;29;20087;-88
2022/03/23 10:31:27;;;;;;;28.52;18.30;;;;;;;23.31;17.55;102138.38;4942787;29;20032;-89
2022/03/23 10:34:22;;;;;;;33.80;19.17;;;;;;;23.57;17.70;102135.72;4943393;29;20143;-90
2022/03/23 10:36:55;;;;;;;29.23;18.00;;;;;;;22.92;17.36;102133.72;4929189;29;20047;-91
2022/03/23 10:39:27;;;;;;;25.63;18.42;;;;;;;23.06;17.71;102130.88;4927410;29;20043;-92
2022/03/23 10:42:15;;;;;;;33.80;18.30;;;;;;;23.03;18.10;102125.88;4945522;29;20031;-90
2022/03/23 10:44:41;;;;;;;34.28;20.33;;;;;;;23.51;17.31;102123.00;4926132;29;20043;-92
2022/03/23 10:47:08;;;;;;;31.75;17.55;;;;;;;23.78;16.38;102121.13;4938812;29;20067;-92
2022/03/23 10:49:36;;;;;;;28.80;16.73;;;;;;;24.26;15.60;102116.28;4908781;29;20028;-92
2022/03/23 10:52:18;;;;;;;20.77;14.70;;;;;;;24.98;14.83;102116.78;4926924;29;20050;-91
2022/03/23 10:54:59;;;;;;;24.35;13.63;;;;;;;25.37;14.26;102115.66;4910404;29;20067;-92
2022/03/23 10:57:44;;;;;;;18.45;11.10;;;;;;;24.73;11.97;102115.00;4928345;29;20506;-92
2022/03/23 11:00:32;;;;;;;17.88;10.80;;;;;;;25.63;11.75;102112.75;4919835;29;20082;-90
2022/03/23 11:02:59;;;;;;;21.95;12.95;;;;;;;25.86;12.62;102098.53;4919267;29;20048;-91
2022/03/23 11:05:39;;;;;;;22.00;13.23;;;;;;;25.28;13.22;102100.72;4951901;29;20059;-89
2022/03/23 11:08:14;;;;;;;26.65;15.10;;;;;;;24.13;14.97;102088.16;4949612;29;20059;-91
2022/03/23 11:17:01;;;;;;;25.33;14.82;;;;;;;25.49;14.46;102089.44;4936778;29;20036;-89
2022/03/23 11:19:35;;;;;;;31.83;14.52;;;;;;;26.18;13.31;102078.31;4974978;23;20051;-91
2022/03/23 11:22:16;;;;;;;17.63;13.48;;;;;;;27.06;13.67;102078.63;4968452;29;20039;-88
2022/03/23 11:24:49;;;;;;;20.30;14.02;;;;;;;26.86;11.86;102078.09;4947589;29;20086;-89
2022/03/23 11:27:18;;;;;;;22.00;13.15;;;;;;;26.08;12.51;102067.13;4952421;29;20083;-90
2022/03/23 11:30:05;;;;;;;18.65;12.90;;;;;;;27.15;12.14;102070.94;4954968;29;20044;-89
2022/03/23 11:32:38;;;;;;;20.83;12.70;;;;;;;26.05;12.26;102064.88;4921998;29;20066;-90
2022/03/23 11:35:31;;;;;;;18.75;12.23;;;;;;;25.91;12.32;102060.66;4937348;29;20043;-91
2022/03/23 11:38:20;;;;;;;23.48;12.88;;;;;;;26.67;12.77;102060.13;4953756;29;20047;-92
2022/03/23 11:40:48;;;;;;;25.40;14.20;;;;;;;26.15;13.08;102042.63;4934900;29;20068;-89
2022/03/23 11:43:16;;;;;;;19.83;13.77;;;;;;;27.16;12.52;102051.66;4935390;29;20083;-89
2022/03/23 11:45:44;;;;;;;24.45;12.25;;;;;;;27.65;12.14;102044.94;4950351;29;20039;-89
2022/03/23 11:48:47;;;;;;;15.63;11.55;;;;;;;28.14;11.55;102040.84;4968819;29;20027;-90
2022/03/23 11:51:20;;;;;;;;;;;;;;;26.82;11.70;102037.97;4965947;29;20043;-91
2022/03/23 11:53:54;;;;;;;17.33;13.23;;;;;;;27.17;11.52;102031.53;4958878;29;19977;-92
2022/03/23 11:56:25;;;;;;;23.52;13.02;;;;;;;26.63;12.22;102018.13;4956668;29;20040;-87